sensor_id;sensor_type;location;lat;lon;timestamp;pressure;altitude;pressure_sealevel;temperature;humidity
74905;BME280;63465;50.862;6.220;2022-10-22T00:01:31;99336.38;;;15.25;73.93
74905;BME280;63465;50.862;6.220;2022-10-22T00:03:58;99336.38;;;15.25;74.05
74905;BME280;63465;50.862;6.220;2022-10-22T00:06:24;99342.69;;;15.24;73.96
74905;BME280;63465;50.862;6.220;2022-10-22T00:08:51;99333.94;;;15.22;74.28
74905;BME280;63465;50.862;6.220;2022-10-22T00:11:19;99322.59;;;15.19;74.36
74905;BME280;63465;50.862;6.220;2022-10-22T00:13:46;99325.00;;;15.10;74.67
74905;BME280;63465;50.862;6.220;2022-10-22T00:16:13;99325.50;;;15.15;74.51
74905;BME280;63465;50.862;6.220;2022-10-22T00:18:40;99333.84;;;15.11;74.67
74905;BME280;63465;50.862;6.220;2022-10-22T00:21:07;99335.69;;;15.10;74.96
74905;BME280;63465;50.862;6.220;2022-10-22T00:23:34;99338.13;;;15.13;74.74
74905;BME280;63465;50.862;6.220;2022-10-22T00:26:00;99336.31;;;15.14;74.78
74905;BME280;63465;50.862;6.220;2022-10-22T00:28:28;99336.66;;;15.09;74.98
74905;BME280;63465;50.862;6.220;2022-10-22T00:30:55;99326.38;;;15.16;75.00
74905;BME280;63465;50.862;6.220;2022-10-22T00:33:22;99322.91;;;15.27;74.79
74905;BME280;63465;50.862;6.220;2022-10-22T00:35:49;99322.16;;;15.25;74.98
74905;BME280;63465;50.862;6.220;2022-10-22T00:38:16;99324.59;;;15.28;74.92
74905;BME280;63465;50.862;6.220;2022-10-22T00:40:43;99328.25;;;15.27;74.97
74905;BME280;63465;50.862;6.220;2022-10-22T00:43:10;99327.25;;;15.28;74.91
74905;BME280;63465;50.862;6.220;2022-10-22T00:45:39;99321.56;;;15.32;74.80
74905;BME280;63465;50.862;6.220;2022-10-22T00:48:08;99321.78;;;15.29;74.89
74905;BME280;63465;50.862;6.220;2022-10-22T00:50:38;99328.63;;;15.33;74.67
74905;BME280;63465;50.862;6.220;2022-10-22T00:53:08;99324.94;;;15.23;75.07
74905;BME280;63465;50.862;6.220;2022-10-22T00:55:37;99328.25;;;15.27;75.08
74905;BME280;63465;50.862;6.220;2022-10-22T00:58:04;99328.47;;;15.24;75.26
74905;BME280;63465;50.862;6.220;2022-10-22T01:00:31;99318.50;;;15.26;75.10
74905;BME280;63465;50.862;6.220;2022-10-22T01:02:59;99315.50;;;15.30;75.21
74905;BME280;63465;50.862;6.220;2022-10-22T01:05:28;99320.50;;;15.35;74.97
74905;BME280;63465;50.862;6.220;2022-10-22T01:07:55;99316.53;;;15.41;74.66
74905;BME280;63465;50.862;6.220;2022-10-22T01:10:44;99318.19;;;15.42;74.63
74905;BME280;63465;50.862;6.220;2022-10-22T01:13:23;99322.09;;;15.38;74.93
74905;BME280;63465;50.862;6.220;2022-10-22T01:16:02;99324.25;;;15.32;75.09
74905;BME280;63465;50.862;6.220;2022-10-22T01:18:38;99322.22;;;15.36;74.92
74905;BME280;63465;50.862;6.220;2022-10-22T01:21:18;99314.19;;;15.36;75.07
74905;BME280;63465;50.862;6.220;2022-10-22T01:24:14;99323.41;;;15.32;75.20
74905;BME280;63465;50.862;6.220;2022-10-22T01:26:55;99325.22;;;15.31;75.31
74905;BME280;63465;50.862;6.220;2022-10-22T01:29:26;99325.69;;;15.25;75.50
74905;BME280;63465;50.862;6.220;2022-10-22T01:31:57;99316.69;;;15.26;75.43
74905;BME280;63465;50.862;6.220;2022-10-22T01:34:27;99321.19;;;15.26;75.52
74905;BME280;63465;50.862;6.220;2022-10-22T01:36:56;99332.09;;;15.23;75.82
74905;BME280;63465;50.862;6.220;2022-10-22T01:39:24;99327.34;;;15.15;76.12
74905;BME280;63465;50.862;6.220;2022-10-22T01:41:54;99321.66;;;15.20;76.01
74905;BME280;63465;50.862;6.220;2022-10-22T01:44:27;99324.25;;;15.32;75.67
74905;BME280;63465;50.862;6.220;2022-10-22T01:47:01;99322.31;;;15.34;75.76
74905;BME280;63465;50.862;6.220;2022-10-22T01:49:40;99320.66;;;15.45;75.32
74905;BME280;63465;50.862;6.220;2022-10-22T01:52:14;99317.59;;;15.38;75.52
74905;BME280;63465;50.862;6.220;2022-10-22T01:54:50;99320.34;;;15.25;75.86
74905;BME280;63465;50.862;6.220;2022-10-22T01:57:23;99318.50;;;15.26;75.82
74905;BME280;63465;50.862;6.220;2022-10-22T01:59:58;99326.88;;;15.21;76.03
74905;BME280;63465;50.862;6.220;2022-10-22T02:02:34;99325.50;;;15.15;76.10
74905;BME280;63465;50.862;6.220;2022-10-22T02:05:07;99324.44;;;15.18;76.31
74905;BME280;63465;50.862;6.220;2022-10-22T02:07:41;99321.53;;;15.21;76.25
74905;BME280;63465;50.862;6.220;2022-10-22T02:10:09;99322.38;;;15.22;76.36
74905;BME280;63465;50.862;6.220;2022-10-22T02:12:37;99318.97;;;15.20;76.35
74905;BME280;63465;50.862;6.220;2022-10-22T02:15:09;99325.16;;;15.20;76.38
74905;BME280;63465;50.862;6.220;2022-10-22T02:17:38;99322.47;;;15.20;76.57
74905;BME280;63465;50.862;6.220;2022-10-22T02:20:09;99323.69;;;15.16;76.66
74905;BME280;63465;50.862;6.220;2022-10-22T02:22:38;99319.44;;;15.13;76.79
74905;BME280;63465;50.862;6.220;2022-10-22T02:25:07;99318.47;;;15.14;76.95
74905;BME280;63465;50.862;6.220;2022-10-22T02:27:38;99312.03;;;15.17;77.03
74905;BME280;63465;50.862;6.220;2022-10-22T02:30:10;99315.56;;;15.18;77.03
74905;BME280;63465;50.862;6.220;2022-10-22T02:32:42;99311.28;;;15.15;77.11
74905;BME280;63465;50.862;6.220;2022-10-22T02:35:12;99311.19;;;15.16;77.07
74905;BME280;63465;50.862;6.220;2022-10-22T02:37:40;99315.78;;;15.14;77.10
74905;BME280;63465;50.862;6.220;2022-10-22T02:40:08;99321.22;;;15.13;77.17
74905;BME280;63465;50.862;6.220;2022-10-22T02:42:36;99320.38;;;15.12;77.32
74905;BME280;63465;50.862;6.220;2022-10-22T02:45:05;99326.38;;;15.16;77.11
74905;BME280;63465;50.862;6.220;2022-10-22T02:47:33;99327.78;;;15.09;77.53
74905;BME280;63465;50.862;6.220;2022-10-22T02:50:00;99322.66;;;15.06;77.67
74905;BME280;63465;50.862;6.220;2022-10-22T02:52:27;99328.25;;;15.03;77.78
74905;BME280;63465;50.862;6.220;2022-10-22T02:54:53;99325.44;;;15.04;77.81
74905;BME280;63465;50.862;6.220;2022-10-22T02:57:20;99323.00;;;15.01;77.82
74905;BME280;63465;50.862;6.220;2022-10-22T02:59:47;99321.63;;;14.95;77.95
74905;BME280;63465;50.862;6.220;2022-10-22T03:02:14;99330.25;;;14.99;78.02
74905;BME280;63465;50.862;6.220;2022-10-22T03:04:42;99337.22;;;15.02;77.93
74905;BME280;63465;50.862;6.220;2022-10-22T03:07:09;99338.72;;;14.93;78.26
74905;BME280;63465;50.862;6.220;2022-10-22T03:09:35;99331.59;;;14.93;78.38
74905;BME280;63465;50.862;6.220;2022-10-22T03:12:02;99339.81;;;14.90;78.34
74905;BME280;63465;50.862;6.220;2022-10-22T03:14:29;99346.75;;;14.93;78.32
74905;BME280;63465;50.862;6.220;2022-10-22T03:16:55;99344.19;;;14.91;78.30
74905;BME280;63465;50.862;6.220;2022-10-22T03:19:22;99347.84;;;14.90;78.33
74905;BME280;63465;50.862;6.220;2022-10-22T03:21:53;99339.16;;;14.87;78.43
74905;BME280;63465;50.862;6.220;2022-10-22T03:24:26;99346.00;;;14.91;78.15
74905;BME280;63465;50.862;6.220;2022-10-22T03:26:54;99337.59;;;14.84;78.31
74905;BME280;63465;50.862;6.220;2022-10-22T03:29:22;99345.16;;;14.90;78.16
74905;BME280;63465;50.862;6.220;2022-10-22T03:31:50;99346.75;;;14.93;78.09
74905;BME280;63465;50.862;6.220;2022-10-22T03:34:17;99352.53;;;14.87;78.24
74905;BME280;63465;50.862;6.220;2022-10-22T03:36:44;99349.97;;;14.85;78.21
74905;BME280;63465;50.862;6.220;2022-10-22T03:39:13;99347.19;;;14.87;77.98
74905;BME280;63465;50.862;6.220;2022-10-22T03:41:42;99355.53;;;14.82;78.16
74905;BME280;63465;50.862;6.220;2022-10-22T03:44:09;99358.09;;;14.84;78.06
74905;BME280;63465;50.862;6.220;2022-10-22T03:46:36;99358.97;;;14.84;78.01
74905;BME280;63465;50.862;6.220;2022-10-22T03:49:03;99366.88;;;14.86;77.87
74905;BME280;63465;50.862;6.220;2022-10-22T03:51:30;99365.94;;;14.74;78.15
74905;BME280;63465;50.862;6.220;2022-10-22T03:53:56;99370.44;;;14.73;77.99
74905;BME280;63465;50.862;6.220;2022-10-22T03:56:24;99376.53;;;14.62;78.34
74905;BME280;63465;50.862;6.220;2022-10-22T03:58:54;99380.66;;;14.67;78.29
74905;BME280;63465;50.862;6.220;2022-10-22T04:01:22;99380.44;;;14.70;78.19
74905;BME280;63465;50.862;6.220;2022-10-22T04:03:49;99381.22;;;14.72;78.23
74905;BME280;63465;50.862;6.220;2022-10-22T04:06:16;99377.78;;;14.70;78.18
74905;BME280;63465;50.862;6.220;2022-10-22T04:08:44;99384.00;;;14.70;78.15
74905;BME280;63465;50.862;6.220;2022-10-22T04:11:11;99382.47;;;14.79;77.54
74905;BME280;63465;50.862;6.220;2022-10-22T04:13:40;99380.44;;;14.83;76.98
74905;BME280;63465;50.862;6.220;2022-10-22T04:16:08;99385.91;;;14.81;76.89
74905;BME280;63465;50.862;6.220;2022-10-22T04:18:36;99386.75;;;14.82;76.66
74905;BME280;63465;50.862;6.220;2022-10-22T04:21:03;99390.81;;;14.87;76.36
74905;BME280;63465;50.862;6.220;2022-10-22T04:23:30;99399.44;;;14.91;76.25
74905;BME280;63465;50.862;6.220;2022-10-22T04:25:57;99413.09;;;14.99;75.83
74905;BME280;63465;50.862;6.220;2022-10-22T04:28:24;99399.50;;;15.02;75.62
74905;BME280;63465;50.862;6.220;2022-10-22T04:30:52;99414.19;;;14.96;75.72
74905;BME280;63465;50.862;6.220;2022-10-22T04:33:19;99412.13;;;15.00;75.45
74905;BME280;63465;50.862;6.220;2022-10-22T04:35:46;99419.53;;;14.96;75.40
74905;BME280;63465;50.862;6.220;2022-10-22T04:38:14;99424.75;;;14.85;76.06
74905;BME280;63465;50.862;6.220;2022-10-22T04:40:41;99423.91;;;14.85;76.03
74905;BME280;63465;50.862;6.220;2022-10-22T04:43:07;99417.84;;;14.83;76.11
74905;BME280;63465;50.862;6.220;2022-10-22T04:45:35;99420.41;;;14.84;75.91
74905;BME280;63465;50.862;6.220;2022-10-22T04:48:03;99421.88;;;14.88;75.65
74905;BME280;63465;50.862;6.220;2022-10-22T04:50:30;99414.84;;;14.87;75.55
74905;BME280;63465;50.862;6.220;2022-10-22T04:52:56;99417.94;;;14.81;75.68
74905;BME280;63465;50.862;6.220;2022-10-22T04:55:23;99424.75;;;14.85;75.50
74905;BME280;63465;50.862;6.220;2022-10-22T04:57:50;99417.28;;;14.90;75.21
74905;BME280;63465;50.862;6.220;2022-10-22T05:00:17;99423.63;;;14.76;75.77
74905;BME280;63465;50.862;6.220;2022-10-22T05:02:48;99421.28;;;14.72;75.85
74905;BME280;63465;50.862;6.220;2022-10-22T05:05:16;99424.91;;;14.71;75.74
74905;BME280;63465;50.862;6.220;2022-10-22T05:07:43;99433.75;;;14.71;75.64
74905;BME280;63465;50.862;6.220;2022-10-22T05:10:09;99434.63;;;14.72;75.26
74905;BME280;63465;50.862;6.220;2022-10-22T05:12:36;99434.63;;;14.72;75.24
74905;BME280;63465;50.862;6.220;2022-10-22T05:15:03;99425.63;;;14.73;74.75
74905;BME280;63465;50.862;6.220;2022-10-22T05:17:30;99436.53;;;14.70;74.82
74905;BME280;63465;50.862;6.220;2022-10-22T05:19:56;99426.72;;;14.70;74.41
74905;BME280;63465;50.862;6.220;2022-10-22T05:22:24;99441.47;;;14.63;74.43
74905;BME280;63465;50.862;6.220;2022-10-22T05:24:51;99453.00;;;14.63;74.46
74905;BME280;63465;50.862;6.220;2022-10-22T05:27:18;99434.28;;;14.63;74.39
74905;BME280;63465;50.862;6.220;2022-10-22T05:29:44;99446.25;;;14.58;74.60
74905;BME280;63465;50.862;6.220;2022-10-22T05:32:11;99440.41;;;14.66;74.09
74905;BME280;63465;50.862;6.220;2022-10-22T05:34:38;99447.09;;;14.58;74.21
74905;BME280;63465;50.862;6.220;2022-10-22T05:37:04;99453.00;;;14.63;74.03
74905;BME280;63465;50.862;6.220;2022-10-22T05:39:32;99444.63;;;14.55;74.22
74905;BME280;63465;50.862;6.220;2022-10-22T05:42:01;99444.63;;;14.55;73.89
74905;BME280;63465;50.862;6.220;2022-10-22T05:44:27;99447.31;;;14.55;73.56
74905;BME280;63465;50.862;6.220;2022-10-22T05:46:54;99447.31;;;14.55;73.74
74905;BME280;63465;50.862;6.220;2022-10-22T05:49:21;99451.69;;;14.56;73.69
74905;BME280;63465;50.862;6.220;2022-10-22T05:51:47;99450.81;;;14.56;73.68
74905;BME280;63465;50.862;6.220;2022-10-22T05:54:15;99452.97;;;14.51;73.70
74905;BME280;63465;50.862;6.220;2022-10-22T05:56:44;99456.38;;;14.53;73.62
74905;BME280;63465;50.862;6.220;2022-10-22T05:59:11;99463.44;;;14.54;73.54
74905;BME280;63465;50.862;6.220;2022-10-22T06:01:38;99459.03;;;14.53;73.49
74905;BME280;63465;50.862;6.220;2022-10-22T06:04:08;99459.03;;;14.53;73.33
74905;BME280;63465;50.862;6.220;2022-10-22T06:06:37;99462.16;;;14.59;73.07
74905;BME280;63465;50.862;6.220;2022-10-22T06:09:08;99462.16;;;14.59;72.96
74905;BME280;63465;50.862;6.220;2022-10-22T06:11:36;99466.00;;;14.55;73.07
74905;BME280;63465;50.862;6.220;2022-10-22T06:14:04;99467.72;;;14.56;73.06
74905;BME280;63465;50.862;6.220;2022-10-22T06:16:31;99472.19;;;14.56;72.89
74905;BME280;63465;50.862;6.220;2022-10-22T06:18:58;99473.63;;;14.61;72.73
74905;BME280;63465;50.862;6.220;2022-10-22T06:21:26;99471.13;;;14.58;72.97
74905;BME280;63465;50.862;6.220;2022-10-22T06:23:55;99482.88;;;14.56;73.04
74905;BME280;63465;50.862;6.220;2022-10-22T06:26:22;99478.19;;;14.59;72.94
74905;BME280;63465;50.862;6.220;2022-10-22T06:28:49;99485.91;;;14.64;72.66
74905;BME280;63465;50.862;6.220;2022-10-22T06:31:17;99490.59;;;14.60;72.94
74905;BME280;63465;50.862;6.220;2022-10-22T06:33:44;99495.69;;;14.51;73.19
74905;BME280;63465;50.862;6.220;2022-10-22T06:36:12;99501.88;;;14.51;73.14
74905;BME280;63465;50.862;6.220;2022-10-22T06:38:39;99499.75;;;14.56;73.12
74905;BME280;63465;50.862;6.220;2022-10-22T06:41:08;99504.31;;;14.54;73.15
74905;BME280;63465;50.862;6.220;2022-10-22T06:43:35;99512.03;;;14.59;72.90
74905;BME280;63465;50.862;6.220;2022-10-22T06:46:03;99508.31;;;14.61;72.96
74905;BME280;63465;50.862;6.220;2022-10-22T06:48:32;99507.38;;;14.62;72.93
74905;BME280;63465;50.862;6.220;2022-10-22T06:51:00;99517.28;;;14.60;72.99
74905;BME280;63465;50.862;6.220;2022-10-22T06:53:27;99522.63;;;14.60;72.88
74905;BME280;63465;50.862;6.220;2022-10-22T06:55:54;99525.66;;;14.69;72.46
74905;BME280;63465;50.862;6.220;2022-10-22T06:58:20;99525.00;;;14.78;72.09
74905;BME280;63465;50.862;6.220;2022-10-22T07:00:47;99536.44;;;14.80;71.94
74905;BME280;63465;50.862;6.220;2022-10-22T07:03:14;99541.34;;;14.86;71.85
74905;BME280;63465;50.862;6.220;2022-10-22T07:05:42;99536.84;;;14.87;72.01
74905;BME280;63465;50.862;6.220;2022-10-22T07:08:09;99535.69;;;14.91;71.66
74905;BME280;63465;50.862;6.220;2022-10-22T07:10:36;99554.91;;;14.96;71.53
74905;BME280;63465;50.862;6.220;2022-10-22T07:13:02;99556.00;;;14.93;71.57
74905;BME280;63465;50.862;6.220;2022-10-22T07:15:29;99561.97;;;14.97;71.59
74905;BME280;63465;50.862;6.220;2022-10-22T07:17:56;99569.66;;;15.02;71.53
74905;BME280;63465;50.862;6.220;2022-10-22T07:20:22;99569.34;;;15.06;71.44
74905;BME280;63465;50.862;6.220;2022-10-22T07:22:50;99576.94;;;15.12;71.01
74905;BME280;63465;50.862;6.220;2022-10-22T07:25:17;99588.28;;;15.16;71.19
74905;BME280;63465;50.862;6.220;2022-10-22T07:27:44;99582.16;;;15.14;71.37
74905;BME280;63465;50.862;6.220;2022-10-22T07:30:11;99580.56;;;15.24;70.76
74905;BME280;63465;50.862;6.220;2022-10-22T07:32:37;99591.16;;;15.26;70.83
74905;BME280;63465;50.862;6.220;2022-10-22T07:35:05;99594.56;;;15.28;70.67
74905;BME280;63465;50.862;6.220;2022-10-22T07:37:32;99597.47;;;15.38;70.47
74905;BME280;63465;50.862;6.220;2022-10-22T07:40:00;99598.63;;;15.33;70.58
74905;BME280;63465;50.862;6.220;2022-10-22T07:42:26;99599.59;;;15.45;70.22
74905;BME280;63465;50.862;6.220;2022-10-22T07:44:53;99605.06;;;15.44;70.30
74905;BME280;63465;50.862;6.220;2022-10-22T07:47:20;99604.84;;;15.47;70.24
74905;BME280;63465;50.862;6.220;2022-10-22T07:49:46;99616.34;;;15.60;70.03
74905;BME280;63465;50.862;6.220;2022-10-22T07:52:13;99604.28;;;15.55;70.03
74905;BME280;63465;50.862;6.220;2022-10-22T07:54:40;99618.19;;;15.60;70.18
74905;BME280;63465;50.862;6.220;2022-10-22T07:57:08;99628.69;;;15.50;70.30
74905;BME280;63465;50.862;6.220;2022-10-22T07:59:34;99621.06;;;15.57;69.95
74905;BME280;63465;50.862;6.220;2022-10-22T08:02:01;99630.28;;;15.65;69.68
74905;BME280;63465;50.862;6.220;2022-10-22T08:04:28;99638.69;;;15.72;69.71
74905;BME280;63465;50.862;6.220;2022-10-22T08:06:55;99645.78;;;15.60;70.08
74905;BME280;63465;50.862;6.220;2022-10-22T08:09:21;99647.59;;;15.60;70.08
74905;BME280;63465;50.862;6.220;2022-10-22T08:11:48;99647.81;;;15.57;70.37
74905;BME280;63465;50.862;6.220;2022-10-22T08:14:16;99657.13;;;15.64;70.04
74905;BME280;63465;50.862;6.220;2022-10-22T08:16:43;99671.25;;;15.53;70.25
74905;BME280;63465;50.862;6.220;2022-10-22T08:19:11;99663.44;;;15.63;69.95
74905;BME280;63465;50.862;6.220;2022-10-22T08:21:43;99667.38;;;15.57;70.48
74905;BME280;63465;50.862;6.220;2022-10-22T08:24:10;99660.94;;;15.73;69.74
74905;BME280;63465;50.862;6.220;2022-10-22T08:26:37;99661.31;;;15.81;69.66
74905;BME280;63465;50.862;6.220;2022-10-22T08:29:03;99660.94;;;15.98;68.51
74905;BME280;63465;50.862;6.220;2022-10-22T08:31:32;99660.81;;;16.00;69.05
74905;BME280;63465;50.862;6.220;2022-10-22T08:33:59;99667.50;;;15.94;69.07
74905;BME280;63465;50.862;6.220;2022-10-22T08:36:25;99678.31;;;15.93;69.09
74905;BME280;63465;50.862;6.220;2022-10-22T08:38:52;99684.06;;;15.99;69.06
74905;BME280;63465;50.862;6.220;2022-10-22T08:41:21;99686.56;;;15.90;69.30
74905;BME280;63465;50.862;6.220;2022-10-22T08:44:05;99698.75;;;15.81;69.25
74905;BME280;63465;50.862;6.220;2022-10-22T08:46:59;99694.56;;;15.77;69.44
74905;BME280;63465;50.862;6.220;2022-10-22T08:49:32;99700.34;;;15.96;68.78
74905;BME280;63465;50.862;6.220;2022-10-22T08:52:00;99712.56;;;16.00;69.33
74905;BME280;63465;50.862;6.220;2022-10-22T08:54:32;99709.31;;;15.95;69.53
74905;BME280;63465;50.862;6.220;2022-10-22T08:57:23;99706.00;;;16.04;68.99
74905;BME280;63465;50.862;6.220;2022-10-22T08:59:59;99708.59;;;15.93;69.40
74905;BME280;63465;50.862;6.220;2022-10-22T09:02:36;99716.31;;;15.85;69.14
74905;BME280;63465;50.862;6.220;2022-10-22T09:05:18;99717.50;;;15.81;69.61
74905;BME280;63465;50.862;6.220;2022-10-22T09:07:47;99725.59;;;15.92;69.42
74905;BME280;63465;50.862;6.220;2022-10-22T09:10:15;99713.00;;;15.94;69.25
74905;BME280;63465;50.862;6.220;2022-10-22T09:12:42;99715.88;;;15.91;69.23
74905;BME280;63465;50.862;6.220;2022-10-22T09:15:12;99721.03;;;15.94;69.18
74905;BME280;63465;50.862;6.220;2022-10-22T09:17:49;99732.78;;;15.92;69.34
74905;BME280;63465;50.862;6.220;2022-10-22T09:20:26;99731.06;;;16.03;69.13
74905;BME280;63465;50.862;6.220;2022-10-22T09:23:01;99731.81;;;16.05;68.48
74905;BME280;63465;50.862;6.220;2022-10-22T09:25:32;99735.66;;;16.01;68.53
74905;BME280;63465;50.862;6.220;2022-10-22T09:28:00;99729.88;;;16.08;68.91
74905;BME280;63465;50.862;6.220;2022-10-22T09:30:29;99732.03;;;16.02;68.40
74905;BME280;63465;50.862;6.220;2022-10-22T09:33:01;99727.41;;;16.04;68.27
74905;BME280;63465;50.862;6.220;2022-10-22T09:35:32;99730.53;;;16.11;68.07
74905;BME280;63465;50.862;6.220;2022-10-22T09:38:05;99738.84;;;16.19;68.13
74905;BME280;63465;50.862;6.220;2022-10-22T09:40:41;99750.25;;;15.97;68.18
74905;BME280;63465;50.862;6.220;2022-10-22T09:43:10;99751.06;;;16.11;68.19
74905;BME280;63465;50.862;6.220;2022-10-22T09:45:37;99748.81;;;16.04;68.07
74905;BME280;63465;50.862;6.220;2022-10-22T09:48:13;99760.59;;;15.89;68.78
74905;BME280;63465;50.862;6.220;2022-10-22T09:50:45;99757.41;;;16.10;68.66
74905;BME280;63465;50.862;6.220;2022-10-22T09:53:18;99759.41;;;16.19;67.51
74905;BME280;63465;50.862;6.220;2022-10-22T09:55:49;99762.63;;;16.11;67.87
74905;BME280;63465;50.862;6.220;2022-10-22T09:58:17;99763.28;;;16.15;68.18
74905;BME280;63465;50.862;6.220;2022-10-22T10:00:46;99775.91;;;16.13;68.16
74905;BME280;63465;50.862;6.220;2022-10-22T10:03:16;99769.72;;;15.99;68.22
74905;BME280;63465;50.862;6.220;2022-10-22T10:05:46;99781.69;;;16.19;67.91
74905;BME280;63465;50.862;6.220;2022-10-22T10:08:15;99775.91;;;16.13;67.40
74905;BME280;63465;50.862;6.220;2022-10-22T10:10:46;99785.63;;;16.14;67.88
74905;BME280;63465;50.862;6.220;2022-10-22T10:13:26;99781.75;;;16.31;66.98
74905;BME280;63465;50.862;6.220;2022-10-22T10:16:02;99790.78;;;16.17;67.07
74905;BME280;63465;50.862;6.220;2022-10-22T10:18:45;99799.03;;;16.14;66.57
74905;BME280;63465;50.862;6.220;2022-10-22T10:21:22;99793.03;;;16.10;67.51
74905;BME280;63465;50.862;6.220;2022-10-22T10:23:57;99794.75;;;16.24;66.90
74905;BME280;63465;50.862;6.220;2022-10-22T10:26:33;99799.03;;;16.14;67.09
74905;BME280;63465;50.862;6.220;2022-10-22T10:29:16;99806.41;;;16.23;66.91
74905;BME280;63465;50.862;6.220;2022-10-22T10:31:58;99797.53;;;16.22;67.21
74905;BME280;63465;50.862;6.220;2022-10-22T10:34:36;99806.28;;;16.25;66.57
74905;BME280;63465;50.862;6.220;2022-10-22T10:37:15;99808.03;;;16.13;66.96
74905;BME280;63465;50.862;6.220;2022-10-22T10:40:07;99811.75;;;16.36;66.63
74905;BME280;63465;50.862;6.220;2022-10-22T10:42:42;99808.75;;;16.40;66.17
74905;BME280;63465;50.862;6.220;2022-10-22T10:45:16;99814.78;;;16.31;65.72
74905;BME280;63465;50.862;6.220;2022-10-22T10:48:13;99825.16;;;16.23;65.99
74905;BME280;63465;50.862;6.220;2022-10-22T10:50:53;99828.56;;;16.38;65.63
74905;BME280;63465;50.862;6.220;2022-10-22T10:53:30;99829.75;;;16.34;66.53
74905;BME280;63465;50.862;6.220;2022-10-22T10:56:05;99830.38;;;16.50;66.10
74905;BME280;63465;50.862;6.220;2022-10-22T10:58:40;99826.44;;;16.30;66.00
74905;BME280;63465;50.862;6.220;2022-10-22T11:01:17;99838.22;;;16.28;66.54
74905;BME280;63465;50.862;6.220;2022-10-22T11:03:57;99836.19;;;16.31;66.33
74905;BME280;63465;50.862;6.220;2022-10-22T11:06:30;99831.06;;;16.28;66.75
74905;BME280;63465;50.862;6.220;2022-10-22T11:09:02;99835.34;;;16.18;67.51
74905;BME280;63465;50.862;6.220;2022-10-22T11:11:34;99837.16;;;16.30;67.10
74905;BME280;63465;50.862;6.220;2022-10-22T11:14:05;99837.03;;;16.32;67.07
74905;BME280;63465;50.862;6.220;2022-10-22T11:16:41;99828.34;;;16.41;67.19
74905;BME280;63465;50.862;6.220;2022-10-22T11:19:12;99829.97;;;16.18;67.10
74905;BME280;63465;50.862;6.220;2022-10-22T11:21:48;99835.19;;;16.32;66.98
74905;BME280;63465;50.862;6.220;2022-10-22T11:24:20;99840.97;;;16.52;66.67
74905;BME280;63465;50.862;6.220;2022-10-22T11:26:51;99841.13;;;16.74;65.88
74905;BME280;63465;50.862;6.220;2022-10-22T11:29:24;99835.78;;;16.74;65.77
74905;BME280;63465;50.862;6.220;2022-10-22T11:31:53;99836.19;;;16.94;64.67
74905;BME280;63465;50.862;6.220;2022-10-22T11:34:23;99836.84;;;16.85;65.35
74905;BME280;63465;50.862;6.220;2022-10-22T11:36:54;99831.06;;;16.91;64.99
74905;BME280;63465;50.862;6.220;2022-10-22T11:39:38;99835.53;;;16.90;64.86
74905;BME280;63465;50.862;6.220;2022-10-22T11:42:10;99823.88;;;16.79;65.47
74905;BME280;63465;50.862;6.220;2022-10-22T11:44:47;99828.19;;;17.05;64.40
74905;BME280;63465;50.862;6.220;2022-10-22T11:47:18;99825.94;;;17.12;64.47
74905;BME280;63465;50.862;6.220;2022-10-22T11:49:54;99824.13;;;17.00;64.40
74905;BME280;63465;50.862;6.220;2022-10-22T11:52:25;99822.34;;;17.00;64.42
74905;BME280;63465;50.862;6.220;2022-10-22T11:54:54;99819.44;;;17.03;64.87
74905;BME280;63465;50.862;6.220;2022-10-22T11:57:27;99808.94;;;17.00;64.69
74905;BME280;63465;50.862;6.220;2022-10-22T11:59:59;99807.38;;;17.09;64.45
74905;BME280;63465;50.862;6.220;2022-10-22T12:02:37;99800.78;;;17.02;64.79
74905;BME280;63465;50.862;6.220;2022-10-22T12:08:19;99799.13;;;16.75;65.97
74905;BME280;63465;50.862;6.220;2022-10-22T12:11:04;99810.47;;;16.91;65.86
74905;BME280;63465;50.862;6.220;2022-10-22T12:13:49;99797.28;;;16.88;65.76
74905;BME280;63465;50.862;6.220;2022-10-22T12:16:19;99799.66;;;17.04;64.55
74905;BME280;63465;50.862;6.220;2022-10-22T12:18:48;99805.03;;;17.04;64.63
74905;BME280;63465;50.862;6.220;2022-10-22T12:21:16;99804.69;;;17.09;64.51
74905;BME280;63465;50.862;6.220;2022-10-22T12:23:45;99790.06;;;17.37;63.55
74905;BME280;63465;50.862;6.220;2022-10-22T12:26:24;99797.94;;;18.32;60.96
74905;BME280;63465;50.862;6.220;2022-10-22T12:28:55;99791.53;;;18.79;59.14
74905;BME280;63465;50.862;6.220;2022-10-22T12:31:22;99793.06;;;19.36;57.08
74905;BME280;63465;50.862;6.220;2022-10-22T12:33:55;99795.47;;;18.86;58.59
74905;BME280;63465;50.862;6.220;2022-10-22T12:36:21;99793.06;;;18.26;60.27
74905;BME280;63465;50.862;6.220;2022-10-22T12:38:52;99794.91;;;18.26;60.45
74905;BME280;63465;50.862;6.220;2022-10-22T12:41:19;99786.75;;;17.80;61.32
74905;BME280;63465;50.862;6.220;2022-10-22T12:43:46;99785.50;;;17.62;62.45
74905;BME280;63465;50.862;6.220;2022-10-22T12:46:14;99783.41;;;17.43;61.64
74905;BME280;63465;50.862;6.220;2022-10-22T12:48:43;99782.38;;;17.79;61.58
74905;BME280;63465;50.862;6.220;2022-10-22T12:51:15;99785.63;;;18.07;60.94
74905;BME280;63465;50.862;6.220;2022-10-22T12:53:44;99786.22;;;18.45;59.92
74905;BME280;63465;50.862;6.220;2022-10-22T12:56:16;99781.97;;;18.20;59.42
74905;BME280;63465;50.862;6.220;2022-10-22T12:58:50;99779.41;;;18.18;60.10
74905;BME280;63465;50.862;6.220;2022-10-22T13:01:17;99776.94;;;18.49;59.19
74905;BME280;63465;50.862;6.220;2022-10-22T13:03:46;99779.97;;;18.33;59.04
74905;BME280;63465;50.862;6.220;2022-10-22T13:06:23;99780.94;;;18.66;57.79
74905;BME280;63465;50.862;6.220;2022-10-22T13:08:57;99775.09;;;18.61;57.23
74905;BME280;63465;50.862;6.220;2022-10-22T13:11:33;99777.69;;;18.83;57.22
74905;BME280;63465;50.862;6.220;2022-10-22T13:14:01;99780.47;;;19.16;56.31
74905;BME280;63465;50.862;6.220;2022-10-22T13:16:28;99779.63;;;19.04;55.84
74905;BME280;63465;50.862;6.220;2022-10-22T13:18:56;99778.59;;;18.72;55.61